sensor_id;sensor_type;location;lat;lon;timestamp;pressure;altitude;pressure_sealevel;temperature;humidity
9538;BME280;4807;48.024;11.726;2022-09-09T00:01:01;94784.19;;;13.34;78.61
9538;BME280;4807;48.024;11.726;2022-09-09T00:04:20;94788.50;;;13.35;78.61
9538;BME280;4807;48.024;11.726;2022-09-09T00:07:44;94782.69;;;13.38;78.61
9538;BME280;4807;48.024;11.726;2022-09-09T00:11:01;94787.00;;;13.40;78.01
9538;BME280;4807;48.024;11.726;2022-09-09T00:14:22;94789.75;;;13.33;77.92
9538;BME280;4807;48.024;11.726;2022-09-09T00:17:49;94801.56;;;13.25;78.66
9538;BME280;4807;48.024;11.726;2022-09-09T00:21:05;94787.63;;;13.42;78.02
9538;BME280;4807;48.024;11.726;2022-09-09T00:24:26;94783.22;;;13.47;77.66
9538;BME280;4807;48.024;11.726;2022-09-09T00:27:40;94787.47;;;13.55;77.21
9538;BME280;4807;48.024;11.726;2022-09-09T00:30:50;94786.72;;;13.48;77.12
9538;BME280;4807;48.024;11.726;2022-09-09T00:34:13;94793.41;;;13.38;78.11
9538;BME280;4807;48.024;11.726;2022-09-09T00:37:26;94800.47;;;13.51;77.64
9538;BME280;4807;48.024;11.726;2022-09-09T00:40:41;94798.75;;;13.57;77.57
9538;BME280;4807;48.024;11.726;2022-09-09T00:44:00;94800.69;;;13.68;77.43
9538;BME280;4807;48.024;11.726;2022-09-09T00:47:38;94799.38;;;13.77;76.93
9538;BME280;4807;48.024;11.726;2022-09-09T00:50:55;94791.03;;;13.85;77.45
9538;BME280;4807;48.024;11.726;2022-09-09T00:57:52;94798.28;;;13.96;76.84
9538;BME280;4807;48.024;11.726;2022-09-09T01:01:07;94800.09;;;14.02;76.70
9538;BME280;4807;48.024;11.726;2022-09-09T01:04:27;94801.84;;;14.08;75.95
9538;BME280;4807;48.024;11.726;2022-09-09T01:07:44;94790.13;;;14.21;76.32
9538;BME280;4807;48.024;11.726;2022-09-09T01:10:59;94789.53;;;14.19;75.63
9538;BME280;4807;48.024;11.726;2022-09-09T01:14:24;94794.16;;;14.12;75.88
9538;BME280;4807;48.024;11.726;2022-09-09T01:17:50;94803.75;;;14.20;76.37
9538;BME280;4807;48.024;11.726;2022-09-09T01:21:09;94795.88;;;14.25;76.20
9538;BME280;4807;48.024;11.726;2022-09-09T01:24:33;94793.31;;;14.30;76.59
9538;BME280;4807;48.024;11.726;2022-09-09T01:28:03;94793.22;;;14.36;75.81
9538;BME280;4807;48.024;11.726;2022-09-09T01:31:18;94785.44;;;14.35;76.55
9538;BME280;4807;48.024;11.726;2022-09-09T01:34:33;94795.97;;;14.48;75.59
9538;BME280;4807;48.024;11.726;2022-09-09T01:37:44;94794.03;;;14.37;75.10
9538;BME280;4807;48.024;11.726;2022-09-09T01:40:53;94788.97;;;14.47;75.20
9538;BME280;4807;48.024;11.726;2022-09-09T01:44:12;94800.41;;;14.54;75.01
9538;BME280;4807;48.024;11.726;2022-09-09T01:47:24;94792.38;;;14.54;75.07
9538;BME280;4807;48.024;11.726;2022-09-09T01:50:52;94797.72;;;14.42;75.36
9538;BME280;4807;48.024;11.726;2022-09-09T01:54:03;94789.25;;;14.57;75.05
9538;BME280;4807;48.024;11.726;2022-09-09T01:57:20;94798.66;;;14.60;75.03
9538;BME280;4807;48.024;11.726;2022-09-09T02:00:37;94791.81;;;14.64;74.97
9538;BME280;4807;48.024;11.726;2022-09-09T02:03:52;94791.13;;;14.68;74.29
9538;BME280;4807;48.024;11.726;2022-09-09T02:07:07;94787.72;;;14.61;74.69
9538;BME280;4807;48.024;11.726;2022-09-09T02:10:25;94783.69;;;14.70;74.57
9538;BME280;4807;48.024;11.726;2022-09-09T02:13:53;94792.28;;;14.61;75.43
9538;BME280;4807;48.024;11.726;2022-09-09T02:17:10;94779.25;;;14.64;74.77
9538;BME280;4807;48.024;11.726;2022-09-09T02:20:34;94781.28;;;14.39;75.85
9538;BME280;4807;48.024;11.726;2022-09-09T02:23:47;94780.63;;;14.37;75.42
9538;BME280;4807;48.024;11.726;2022-09-09T02:27:04;94776.31;;;14.36;76.39
9538;BME280;4807;48.024;11.726;2022-09-09T02:30:16;94792.41;;;14.36;75.85
9538;BME280;4807;48.024;11.726;2022-09-09T02:33:38;94789.31;;;14.21;76.83
9538;BME280;4807;48.024;11.726;2022-09-09T02:36:49;94790.72;;;14.23;76.50
9538;BME280;4807;48.024;11.726;2022-09-09T02:39:59;94778.75;;;14.26;76.75
9538;BME280;4807;48.024;11.726;2022-09-09T02:43:08;94792.16;;;14.26;76.73
9538;BME280;4807;48.024;11.726;2022-09-09T02:46:36;94781.97;;;14.16;76.99
9538;BME280;4807;48.024;11.726;2022-09-09T02:50:01;94780.47;;;14.20;77.46
9538;BME280;4807;48.024;11.726;2022-09-09T02:53:17;94783.75;;;14.22;77.03
9538;BME280;4807;48.024;11.726;2022-09-09T02:56:36;94768.31;;;14.06;77.91
9538;BME280;4807;48.024;11.726;2022-09-09T02:59:50;94771.22;;;14.04;78.20
9538;BME280;4807;48.024;11.726;2022-09-09T03:02:59;94767.28;;;14.07;78.27
9538;BME280;4807;48.024;11.726;2022-09-09T03:06:09;94774.03;;;14.09;78.44
9538;BME280;4807;48.024;11.726;2022-09-09T03:09:19;94773.44;;;14.07;78.71
9538;BME280;4807;48.024;11.726;2022-09-09T03:12:29;94778.41;;;14.04;78.61
9538;BME280;4807;48.024;11.726;2022-09-09T03:15:40;94765.19;;;14.09;79.12
9538;BME280;4807;48.024;11.726;2022-09-09T03:18:54;94757.06;;;14.16;79.01
9538;BME280;4807;48.024;11.726;2022-09-09T03:22:04;94763.19;;;14.04;79.24
9538;BME280;4807;48.024;11.726;2022-09-09T03:25:16;94753.28;;;14.05;79.31
9538;BME280;4807;48.024;11.726;2022-09-09T03:28:26;94758.41;;;14.06;79.62
9538;BME280;4807;48.024;11.726;2022-09-09T03:31:40;94755.13;;;13.93;80.10
9538;BME280;4807;48.024;11.726;2022-09-09T03:34:50;94753.91;;;13.89;80.17
9538;BME280;4807;48.024;11.726;2022-09-09T03:38:00;94753.28;;;13.75;80.17
9538;BME280;4807;48.024;11.726;2022-09-09T03:41:12;94751.50;;;13.69;80.85
9538;BME280;4807;48.024;11.726;2022-09-09T03:44:20;94748.63;;;13.52;81.49
9538;BME280;4807;48.024;11.726;2022-09-09T03:47:29;94765.41;;;13.41;81.74
9538;BME280;4807;48.024;11.726;2022-09-09T03:50:47;94757.69;;;13.51;81.75
9538;BME280;4807;48.024;11.726;2022-09-09T03:53:57;94747.88;;;13.45;81.33
9538;BME280;4807;48.024;11.726;2022-09-09T03:57:08;94747.88;;;13.45;81.67
9538;BME280;4807;48.024;11.726;2022-09-09T04:00:17;94748.44;;;13.47;82.08
9538;BME280;4807;48.024;11.726;2022-09-09T04:03:32;94752.63;;;13.61;81.25
9538;BME280;4807;48.024;11.726;2022-09-09T04:06:40;94753.19;;;13.63;81.15
9538;BME280;4807;48.024;11.726;2022-09-09T04:09:50;94747.19;;;13.68;80.94
9538;BME280;4807;48.024;11.726;2022-09-09T04:12:59;94746.16;;;13.69;81.53
9538;BME280;4807;48.024;11.726;2022-09-09T04:16:10;94747.09;;;13.74;80.93
9538;BME280;4807;48.024;11.726;2022-09-09T04:19:21;94762.78;;;13.71;81.41
9538;BME280;4807;48.024;11.726;2022-09-09T04:22:31;94749.09;;;13.79;80.51
9538;BME280;4807;48.024;11.726;2022-09-09T04:25:44;94747.00;;;13.81;80.43
9538;BME280;4807;48.024;11.726;2022-09-09T04:28:54;94723.97;;;13.80;80.32
9538;BME280;4807;48.024;11.726;2022-09-09T04:32:03;94717.91;;;13.73;81.01
9538;BME280;4807;48.024;11.726;2022-09-09T04:35:12;94724.88;;;13.74;80.26
9538;BME280;4807;48.024;11.726;2022-09-09T04:38:21;94727.03;;;13.65;81.00
9538;BME280;4807;48.024;11.726;2022-09-09T04:41:35;94739.78;;;13.70;81.32
9538;BME280;4807;48.024;11.726;2022-09-09T04:44:45;94744.94;;;13.83;80.85
9538;BME280;4807;48.024;11.726;2022-09-09T04:47:55;94736.81;;;13.90;80.79
9538;BME280;4807;48.024;11.726;2022-09-09T04:51:06;94737.19;;;13.93;80.53
9538;BME280;4807;48.024;11.726;2022-09-09T04:54:16;94732.88;;;13.92;80.30
9538;BME280;4807;48.024;11.726;2022-09-09T04:57:27;94732.50;;;13.89;79.86
9538;BME280;4807;48.024;11.726;2022-09-09T05:00:38;94729.16;;;13.93;80.55
9538;BME280;4807;48.024;11.726;2022-09-09T05:03:49;94723.50;;;14.01;80.17
9538;BME280;4807;48.024;11.726;2022-09-09T05:07:01;94725.69;;;14.04;80.12
9538;BME280;4807;48.024;11.726;2022-09-09T05:10:10;94735.84;;;14.02;80.15
9538;BME280;4807;48.024;11.726;2022-09-09T05:13:23;94734.66;;;13.98;80.78
9538;BME280;4807;48.024;11.726;2022-09-09T05:16:32;94727.72;;;14.09;79.21
9538;BME280;4807;48.024;11.726;2022-09-09T05:19:41;94726.91;;;14.08;80.03
9538;BME280;4807;48.024;11.726;2022-09-09T05:22:53;94740.69;;;14.24;78.63
9538;BME280;4807;48.024;11.726;2022-09-09T05:26:04;94740.47;;;14.37;78.38
9538;BME280;4807;48.024;11.726;2022-09-09T05:29:14;94749.03;;;14.45;78.25
9538;BME280;4807;48.024;11.726;2022-09-09T05:32:24;94748.16;;;14.75;77.49
9538;BME280;4807;48.024;11.726;2022-09-09T05:35:33;94757.25;;;14.85;76.51
9538;BME280;4807;48.024;11.726;2022-09-09T05:38:41;94756.19;;;14.86;76.70
9538;BME280;4807;48.024;11.726;2022-09-09T05:41:50;94759.38;;;14.83;76.90
9538;BME280;4807;48.024;11.726;2022-09-09T05:45:01;94751.53;;;14.70;77.39
9538;BME280;4807;48.024;11.726;2022-09-09T05:48:10;94741.16;;;14.74;77.59
9538;BME280;4807;48.024;11.726;2022-09-09T05:51:21;94753.41;;;14.81;76.85
9538;BME280;4807;48.024;11.726;2022-09-09T05:54:29;94752.25;;;14.89;76.42
9538;BME280;4807;48.024;11.726;2022-09-09T05:57:41;94758.19;;;14.91;76.55
9538;BME280;4807;48.024;11.726;2022-09-09T06:00:51;94764.47;;;15.08;76.28
9538;BME280;4807;48.024;11.726;2022-09-09T06:04:02;94765.22;;;15.15;76.34
9538;BME280;4807;48.024;11.726;2022-09-09T06:07:12;94761.81;;;15.20;76.25
9538;BME280;4807;48.024;11.726;2022-09-09T06:10:22;94764.59;;;15.25;76.29
9538;BME280;4807;48.024;11.726;2022-09-09T06:13:33;94764.16;;;15.05;76.60
9538;BME280;4807;48.024;11.726;2022-09-09T06:16:44;94759.47;;;15.12;76.36
9538;BME280;4807;48.024;11.726;2022-09-09T06:19:58;94758.22;;;15.14;76.31
9538;BME280;4807;48.024;11.726;2022-09-09T06:23:06;94760.28;;;15.01;76.91
9538;BME280;4807;48.024;11.726;2022-09-09T06:26:19;94760.41;;;15.06;76.57
9538;BME280;4807;48.024;11.726;2022-09-09T06:29:29;94757.59;;;15.01;76.90
9538;BME280;4807;48.024;11.726;2022-09-09T06:32:39;94762.75;;;15.02;77.58
9538;BME280;4807;48.024;11.726;2022-09-09T06:35:51;94769.63;;;14.98;77.83
9538;BME280;4807;48.024;11.726;2022-09-09T06:39:01;94773.81;;;15.17;77.60
9538;BME280;4807;48.024;11.726;2022-09-09T06:42:11;94783.72;;;15.17;77.61
9538;BME280;4807;48.024;11.726;2022-09-09T06:45:28;94786.41;;;15.17;78.10
9538;BME280;4807;48.024;11.726;2022-09-09T06:48:41;94783.63;;;15.23;77.08
9538;BME280;4807;48.024;11.726;2022-09-09T06:51:53;94779.78;;;15.31;77.02
9538;BME280;4807;48.024;11.726;2022-09-09T06:55:02;94770.19;;;15.35;77.14
9538;BME280;4807;48.024;11.726;2022-09-09T06:58:13;94771.56;;;15.49;76.61
9538;BME280;4807;48.024;11.726;2022-09-09T07:01:25;94775.91;;;15.62;76.64
9538;BME280;4807;48.024;11.726;2022-09-09T07:04:37;94776.06;;;15.55;76.50
9538;BME280;4807;48.024;11.726;2022-09-09T07:07:46;94772.50;;;15.67;76.43
9538;BME280;4807;48.024;11.726;2022-09-09T07:11:03;94767.47;;;15.82;75.23
9538;BME280;4807;48.024;11.726;2022-09-09T07:14:20;94768.03;;;15.95;75.67
9538;BME280;4807;48.024;11.726;2022-09-09T07:17:35;94769.09;;;15.83;75.14
9538;BME280;4807;48.024;11.726;2022-09-09T07:20:54;94756.16;;;15.80;74.99
9538;BME280;4807;48.024;11.726;2022-09-09T07:24:05;94760.00;;;15.84;75.16
9538;BME280;4807;48.024;11.726;2022-09-09T07:27:19;94764.78;;;15.82;75.58
9538;BME280;4807;48.024;11.726;2022-09-09T07:30:31;94777.28;;;15.76;75.55
9538;BME280;4807;48.024;11.726;2022-09-09T07:33:40;94775.09;;;15.61;75.59
9538;BME280;4807;48.024;11.726;2022-09-09T07:36:50;94786.28;;;15.58;75.33
9538;BME280;4807;48.024;11.726;2022-09-09T07:40:00;94797.25;;;15.69;74.62
9538;BME280;4807;48.024;11.726;2022-09-09T07:43:11;94821.28;;;15.52;75.12
9538;BME280;4807;48.024;11.726;2022-09-09T07:46:26;94841.34;;;15.49;76.27
9538;BME280;4807;48.024;11.726;2022-09-09T07:49:35;94835.50;;;15.52;76.65
9538;BME280;4807;48.024;11.726;2022-09-09T07:52:47;94845.09;;;15.48;77.00
9538;BME280;4807;48.024;11.726;2022-09-09T07:56:02;94859.28;;;15.49;77.84
9538;BME280;4807;48.024;11.726;2022-09-09T07:59:11;94856.53;;;15.32;78.39
9538;BME280;4807;48.024;11.726;2022-09-09T08:02:23;94853.34;;;15.35;78.89
9538;BME280;4807;48.024;11.726;2022-09-09T08:05:32;94858.63;;;15.30;79.07
9538;BME280;4807;48.024;11.726;2022-09-09T08:08:43;94865.81;;;15.18;79.00
9538;BME280;4807;48.024;11.726;2022-09-09T08:11:53;94864.94;;;14.94;78.66
9538;BME280;4807;48.024;11.726;2022-09-09T08:15:05;94867.94;;;15.27;78.32
9538;BME280;4807;48.024;11.726;2022-09-09T08:18:13;94863.84;;;15.13;78.86
9538;BME280;4807;48.024;11.726;2022-09-09T08:21:30;94863.97;;;15.30;78.54
9538;BME280;4807;48.024;11.726;2022-09-09T08:24:41;94863.34;;;15.16;79.00
9538;BME280;4807;48.024;11.726;2022-09-09T08:27:50;94858.41;;;15.67;77.43
9538;BME280;4807;48.024;11.726;2022-09-09T08:31:10;94865.63;;;15.78;76.09
9538;BME280;4807;48.024;11.726;2022-09-09T08:34:21;94873.47;;;15.79;76.25
9538;BME280;4807;48.024;11.726;2022-09-09T08:37:30;94867.50;;;15.65;76.43
9538;BME280;4807;48.024;11.726;2022-09-09T08:40:47;94874.97;;;15.75;76.11
9538;BME280;4807;48.024;11.726;2022-09-09T08:44:07;94874.41;;;15.61;76.28
9538;BME280;4807;48.024;11.726;2022-09-09T08:47:30;94882.44;;;15.61;75.89
9538;BME280;4807;48.024;11.726;2022-09-09T08:50:45;94882.41;;;15.50;76.56
9538;BME280;4807;48.024;11.726;2022-09-09T08:54:04;94888.41;;;15.63;77.24
9538;BME280;4807;48.024;11.726;2022-09-09T08:57:21;94878.13;;;15.72;77.15
9538;BME280;4807;48.024;11.726;2022-09-09T09:00:44;94883.50;;;15.72;77.56
9538;BME280;4807;48.024;11.726;2022-09-09T09:04:14;94881.03;;;15.47;77.36
9538;BME280;4807;48.024;11.726;2022-09-09T09:07:44;94878.59;;;15.57;77.39
9538;BME280;4807;48.024;11.726;2022-09-09T09:10:59;94877.06;;;15.85;76.94
9538;BME280;4807;48.024;11.726;2022-09-09T09:14:18;94880.34;;;15.87;76.26
9538;BME280;4807;48.024;11.726;2022-09-09T09:17:33;94875.88;;;16.04;76.46
9538;BME280;4807;48.024;11.726;2022-09-09T09:20:56;94872.75;;;15.95;76.36
9538;BME280;4807;48.024;11.726;2022-09-09T09:24:18;94877.53;;;16.05;76.69
9538;BME280;4807;48.024;11.726;2022-09-09T09:27:33;94890.59;;;15.90;76.47
9538;BME280;4807;48.024;11.726;2022-09-09T09:30:53;94887.81;;;15.85;76.37
9538;BME280;4807;48.024;11.726;2022-09-09T09:34:05;94892.81;;;15.81;77.09
9538;BME280;4807;48.024;11.726;2022-09-09T09:37:22;94895.16;;;15.89;76.93
9538;BME280;4807;48.024;11.726;2022-09-09T09:40:36;94895.97;;;15.90;76.83
9538;BME280;4807;48.024;11.726;2022-09-09T09:43:54;94906.34;;;16.21;75.63
9538;BME280;4807;48.024;11.726;2022-09-09T09:47:12;94906.84;;;16.47;75.23
9538;BME280;4807;48.024;11.726;2022-09-09T09:50:25;94898.63;;;16.65;73.11
9538;BME280;4807;48.024;11.726;2022-09-09T09:53:37;94891.88;;;16.91;73.20
9538;BME280;4807;48.024;11.726;2022-09-09T09:56:50;94896.75;;;17.55;70.68
9538;BME280;4807;48.024;11.726;2022-09-09T10:00:13;94894.19;;;18.16;69.06
9538;BME280;4807;48.024;11.726;2022-09-09T10:03:29;94894.66;;;18.13;68.64
9538;BME280;4807;48.024;11.726;2022-09-09T10:06:40;94891.78;;;18.41;67.49
9538;BME280;4807;48.024;11.726;2022-09-09T10:09:53;94888.97;;;18.31;67.19
9538;BME280;4807;48.024;11.726;2022-09-09T10:13:10;94891.97;;;18.35;67.59
9538;BME280;4807;48.024;11.726;2022-09-09T10:16:38;94895.69;;;17.90;68.58
9538;BME280;4807;48.024;11.726;2022-09-09T10:20:18;94897.28;;;18.08;68.86
9538;BME280;4807;48.024;11.726;2022-09-09T10:23:56;94880.06;;;17.92;69.82
9538;BME280;4807;48.024;11.726;2022-09-09T10:27:19;94880.03;;;18.09;68.59
9538;BME280;4807;48.024;11.726;2022-09-09T10:30:45;94878.34;;;18.24;68.42
9538;BME280;4807;48.024;11.726;2022-09-09T10:34:10;94884.25;;;18.43;66.40
9538;BME280;4807;48.024;11.726;2022-09-09T10:37:50;94887.09;;;18.32;66.08
9538;BME280;4807;48.024;11.726;2022-09-09T10:41:31;94890.75;;;17.65;69.01
9538;BME280;4807;48.024;11.726;2022-09-09T10:45:10;94885.25;;;17.27;70.92
9538;BME280;4807;48.024;11.726;2022-09-09T10:48:41;94895.03;;;17.33;70.59
9538;BME280;4807;48.024;11.726;2022-09-09T10:52:01;94885.09;;;17.33;70.39
9538;BME280;4807;48.024;11.726;2022-09-09T10:55:18;94887.41;;;17.13;70.63
9538;BME280;4807;48.024;11.726;2022-09-09T10:58:36;94901.88;;;17.24;69.97
9538;BME280;4807;48.024;11.726;2022-09-09T11:01:51;94896.75;;;17.39;69.51
9538;BME280;4807;48.024;11.726;2022-09-09T11:05:06;94905.28;;;18.03;68.43
9538;BME280;4807;48.024;11.726;2022-09-09T11:08:19;94908.41;;;17.95;67.86
9538;BME280;4807;48.024;11.726;2022-09-09T11:11:39;94895.69;;;17.90;67.80
9538;BME280;4807;48.024;11.726;2022-09-09T11:14:59;94898.47;;;17.62;67.89
9538;BME280;4807;48.024;11.726;2022-09-09T11:18:18;94897.19;;;17.64;67.56
9538;BME280;4807;48.024;11.726;2022-09-09T11:21:45;94892.34;;;18.00;67.71
9538;BME280;4807;48.024;11.726;2022-09-09T11:24:59;94894.59;;;18.08;66.09
9538;BME280;4807;48.024;11.726;2022-09-09T11:28:44;94897.34;;;18.13;66.11
9538;BME280;4807;48.024;11.726;2022-09-09T11:32:20;94887.22;;;18.42;64.80
9538;BME280;4807;48.024;11.726;2022-09-09T11:35:41;94888.53;;;18.83;64.15
9538;BME280;4807;48.024;11.726;2022-09-09T11:39:07;94883.94;;;19.37;61.72
9538;BME280;4807;48.024;11.726;2022-09-09T11:42:24;94877.75;;;19.41;60.66
9538;BME280;4807;48.024;11.726;2022-09-09T11:45:36;94881.41;;;19.25;61.23
9538;BME280;4807;48.024;11.726;2022-09-09T11:48:58;94885.00;;;19.04;60.46
9538;BME280;4807;48.024;11.726;2022-09-09T11:52:12;94881.72;;;19.02;61.52
9538;BME280;4807;48.024;11.726;2022-09-09T11:55:27;94880.38;;;19.31;61.86
9538;BME280;4807;48.024;11.726;2022-09-09T11:58:44;94880.56;;;19.84;59.85
9538;BME280;4807;48.024;11.726;2022-09-09T12:02:14;94881.94;;;19.86;58.97
9538;BME280;4807;48.024;11.726;2022-09-09T12:05:35;94883.66;;;20.02;59.40
9538;BME280;4807;48.024;11.726;2022-09-09T12:08:53;94883.59;;;20.34;60.40
9538;BME280;4807;48.024;11.726;2022-09-09T12:12:25;94889.72;;;20.25;59.50
9538;BME280;4807;48.024;11.726;2022-09-09T12:15:34;94883.38;;;20.04;60.51
9538;BME280;4807;48.024;11.726;2022-09-09T12:18:44;94880.41;;;20.00;59.21
9538;BME280;4807;48.024;11.726;2022-09-09T12:22:06;94882.22;;;19.95;61.14
9538;BME280;4807;48.024;11.726;2022-09-09T12:25:28;94876.03;;;19.94;61.19
9538;BME280;4807;48.024;11.726;2022-09-09T12:28:53;94875.91;;;19.79;61.48
9538;BME280;4807;48.024;11.726;2022-09-09T12:32:09;94883.25;;;20.26;60.29
9538;BME280;4807;48.024;11.726;2022-09-09T12:35:22;94873.50;;;20.25;59.64
9538;BME280;4807;48.024;11.726;2022-09-09T12:38:37;94876.00;;;20.36;58.63
9538;BME280;4807;48.024;11.726;2022-09-09T12:41:54;94876.13;;;20.56;58.41
9538;BME280;4807;48.024;11.726;2022-09-09T12:45:17;94871.25;;;20.59;58.36
9538;BME280;4807;48.024;11.726;2022-09-09T12:48:32;94867.81;;;20.83;58.03
9538;BME280;4807;48.024;11.726;2022-09-09T12:51:43;94869.91;;;20.09;59.24
9538;BME280;4807;48.024;11.726;2022-09-09T12:54:52;94862.34;;;20.58;57.71
9538;BME280;4807;48.024;11.726;2022-09-09T12:58:04;94856.97;;;20.73;57.79
9538;BME280;4807;48.024;11.726;2022-09-09T13:01:23;94850.69;;;20.63;56.83
9538;BME280;4807;48.024;11.726;2022-09-09T13:04:32;94845.00;;;20.54;58.08
9538;BME280;4807;48.024;11.726;2022-09-09T13:07:42;94846.41;;;20.67;57.46
9538;BME280;4807;48.024;11.726;2022-09-09T13:10:55;94848.81;;;20.58;57.91
9538;BME280;4807;48.024;11.726;2022-09-09T13:14:16;94848.81;;;20.06;59.92
9538;BME280;4807;48.024;11.726;2022-09-09T13:17:28;94850.81;;;20.31;59.43
9538;BME280;4807;48.024;11.726;2022-09-09T13:20:36;94838.63;;;20.23;58.84
9538;BME280;4807;48.024;11.726;2022-09-09T13:23:51;94836.75;;;20.29;59.02
9538;BME280;4807;48.024;11.726;2022-09-09T13:27:03;94834.59;;;19.47;58.63
9538;BME280;4807;48.024;11.726;2022-09-09T13:30:24;94833.75;;;18.55;61.39
9538;BME280;4807;48.024;11.726;2022-09-09T13:33:34;94830.97;;;18.50;60.61
9538;BME280;4807;48.024;11.726;2022-09-09T13:36:48;94826.03;;;18.64;61.32
9538;BME280;4807;48.024;11.726;2022-09-09T13:39:58;94825.31;;;18.74;61.40
9538;BME280;4807;48.024;11.726;2022-09-09T13:43:20;94824.16;;;18.21;62.93
9538;BME280;4807;48.024;11.726;2022-09-09T13:46:35;94825.78;;;18.00;63.59
9538;BME280;4807;48.024;11.726;2022-09-09T13:49:43;94822.84;;;18.45;62.85
9538;BME280;4807;48.024;11.726;2022-09-09T13:52:54;94819.91;;;18.47;63.50
9538;BME280;4807;48.024;11.726;2022-09-09T13:56:07;94821.97;;;18.18;63.39
9538;BME280;4807;48.024;11.726;2022-09-09T13:59:19;94813.94;;;17.79;64.67
9538;BME280;4807;48.024;11.726;2022-09-09T14:02:28;94819.75;;;17.93;64.81
9538;BME280;4807;48.024;11.726;2022-09-09T14:05:38;94824.31;;;17.92;64.92
9538;BME280;4807;48.024;11.726;2022-09-09T14:08:47;94823.00;;;17.57;65.77
9538;BME280;4807;48.024;11.726;2022-09-09T14:11:57;94820.63;;;17.43;65.93
9538;BME280;4807;48.024;11.726;2022-09-09T14:15:11;94814.16;;;17.61;66.32
9538;BME280;4807;48.024;11.726;2022-09-09T14:18:19;94819.31;;;17.79;65.93
9538;BME280;4807;48.024;11.726;2022-09-09T14:21:29;94808.91;;;17.66;66.11
9538;BME280;4807;48.024;11.726;2022-09-09T14:24:37;94807.28;;;17.32;67.46
9538;BME280;4807;48.024;11.726;2022-09-09T14:27:47;94803.00;;;17.69;67.01
9538;BME280;4807;48.024;11.726;2022-09-09T14:30:59;94810.59;;;17.72;66.85
9538;BME280;4807;48.024;11.726;2022-09-09T14:34:08;94810.44;;;18.01;66.64
9538;BME280;4807;48.024;11.726;2022-09-09T14:37:18;94816.84;;;17.78;66.59
9538;BME280;4807;48.024;11.726;2022-09-09T14:40:27;94820.03;;;18.13;66.09
9538;BME280;4807;48.024;11.726;2022-09-09T14:43:37;94814.56;;;18.30;64.78
9538;BME280;4807;48.024;11.726;2022-09-09T14:46:45;94810.44;;;18.01;65.48
9538;BME280;4807;48.024;11.726;2022-09-09T14:49:54;94812.63;;;18.04;65.61
9538;BME280;4807;48.024;11.726;2022-09-09T14:53:02;94818.56;;;18.49;65.18
9538;BME280;4807;48.024;11.726;2022-09-09T14:56:14;94809.09;;;18.25;64.63
9538;BME280;4807;48.024;11.726;2022-09-09T14:59:25;94811.13;;;18.83;63.74
9538;BME280;4807;48.024;11.726;2022-09-09T15:02:33;94816.78;;;19.14;62.14
9538;BME280;4807;48.024;11.726;2022-09-09T15:05:42;94816.59;;;19.20;61.45
9538;BME280;4807;48.024;11.726;2022-09-09T15:08:52;94816.41;;;19.00;61.58
9538;BME280;4807;48.024;11.726;2022-09-09T15:12:01;94811.44;;;18.87;60.92
9538;BME280;4807;48.024;11.726;2022-09-09T15:15:12;94808.84;;;18.97;59.67
9538;BME280;4807;48.024;11.726;2022-09-09T15:18:21;94812.13;;;19.04;58.88
9538;BME280;4807;48.024;11.726;2022-09-09T15:21:33;94811.78;;;18.68;60.75
9538;BME280;4807;48.024;11.726;2022-09-09T15:24:42;94814.44;;;18.63;60.88
9538;BME280;4807;48.024;11.726;2022-09-09T15:27:50;94804.50;;;17.99;62.43
9538;BME280;4807;48.024;11.726;2022-09-09T15:31:06;94807.50;;;18.02;63.46
9538;BME280;4807;48.024;11.726;2022-09-09T15:34:15;94801.22;;;18.18;62.57
9538;BME280;4807;48.024;11.726;2022-09-09T15:37:24;94803.34;;;18.16;62.91
9538;BME280;4807;48.024;11.726;2022-09-09T15:40:33;94807.97;;;17.77;63.80
9538;BME280;4807;48.024;11.726;2022-09-09T15:43:44;94808.00;;;17.99;63.40
9538;BME280;4807;48.024;11.726;2022-09-09T15:46:54;94808.63;;;17.68;64.39
9538;BME280;4807;48.024;11.726;2022-09-09T15:50:03;94802.84;;;17.59;64.24
9538;BME280;4807;48.024;11.726;2022-09-09T15:53:11;94800.34;;;17.36;64.48
9538;BME280;4807;48.024;11.726;2022-09-09T15:56:19;94804.13;;;17.35;64.72
9538;BME280;4807;48.024;11.726;2022-09-09T15:59:29;94792.56;;;17.56;65.34
9538;BME280;4807;48.024;11.726;2022-09-09T16:02:39;94794.06;;;17.47;64.76
9538;BME280;4807;48.024;11.726;2022-09-09T16:05:51;94790.16;;;17.38;65.21
9538;BME280;4807;48.024;11.726;2022-09-09T16:09:01;94783.34;;;17.69;64.49
9538;BME280;4807;48.024;11.726;2022-09-09T16:12:10;94780.59;;;17.85;63.76
9538;BME280;4807;48.024;11.726;2022-09-09T16:15:19;94781.28;;;17.76;64.13
9538;BME280;4807;48.024;11.726;2022-09-09T16:18:35;94775.59;;;17.55;65.13
9538;BME280;4807;48.024;11.726;2022-09-09T16:21:47;94784.94;;;17.14;65.67
9538;BME280;4807;48.024;11.726;2022-09-09T16:24:55;94783.50;;;17.07;65.55
9538;BME280;4807;48.024;11.726;2022-09-09T16:28:03;94779.16;;;16.89;66.22
9538;BME280;4807;48.024;11.726;2022-09-09T16:31:17;94777.44;;;16.83;66.25
9538;BME280;4807;48.024;11.726;2022-09-09T16:34:27;94778.09;;;16.90;66.14
9538;BME280;4807;48.024;11.726;2022-09-09T16:37:35;94771.41;;;16.76;66.26
9538;BME280;4807;48.024;11.726;2022-09-09T16:40:43;94767.34;;;16.90;65.37
9538;BME280;4807;48.024;11.726;2022-09-09T16:43:53;94765.78;;;17.28;64.20
9538;BME280;4807;48.024;11.726;2022-09-09T16:47:02;94755.69;;;17.57;64.26
9538;BME280;4807;48.024;11.726;2022-09-09T16:50:12;94763.53;;;17.75;63.72
9538;BME280;4807;48.024;11.726;2022-09-09T16:53:20;94762.63;;;17.69;63.02
9538;BME280;4807;48.024;11.726;2022-09-09T16:56:30;94757.94;;;17.81;62.76
9538;BME280;4807;48.024;11.726;2022-09-09T16:59:39;94758.28;;;17.68;63.04
9538;BME280;4807;48.024;11.726;2022-09-09T17:02:48;94761.00;;;17.51;64.00
9538;BME280;4807;48.024;11.726;2022-09-09T17:05:58;94759.50;;;17.39;64.75
9538;BME280;4807;48.024;11.726;2022-09-09T17:09:10;94772.91;;;17.00;66.76
9538;BME280;4807;48.024;11.726;2022-09-09T17:12:19;94759.22;;;16.85;66.77
9538;BME280;4807;48.024;11.726;2022-09-09T17:15:29;94771.81;;;16.68;67.80
9538;BME280;4807;48.024;11.726;2022-09-09T17:18:37;94773.25;;;16.59;68.71
9538;BME280;4807;48.024;11.726;2022-09-09T17:21:48;94779.81;;;16.23;69.16
9538;BME280;4807;48.024;11.726;2022-09-09T17:25:16;94774.97;;;16.08;70.21